Time;durP1;ratioP1;P1;durP2;ratioP2;P2;SDS_P1;SDS_P2;PMS_P1;PMS_P2;Temp;Humidity;BMP_temperature;BMP_pressure;BME280_temperature;BME280_humidity;BME280_pressure;Samples;Min_cycle;Max_cycle;Signal;HPM_P1;HPM_P2
2023/12/12 00:00:50;;;;;;;3.40;1.50;;;;;;;6.14;100.00;99260.16;105120;1258;69291;-61
2023/12/12 00:03:39;;;;;;;4.20;1.50;;;;;;;6.14;100.00;99260.34;105153;1257;69205;-61
2023/12/12 00:06:08;;;;;;;3.30;1.30;;;;;;;6.13;100.00;99262.98;105252;1262;72984;-61
2023/12/12 00:08:36;;;;;;;2.90;1.10;;;;;;;6.12;100.00;99268.01;105239;1262;81589;-60
2023/12/12 00:11:05;;;;;;;4.90;1.30;;;;;;;6.11;100.00;99266.86;105144;1262;71695;-60
2023/12/12 00:13:52;;;;;;;1.70;1.10;;;;;;;6.10;100.00;99268.98;105129;1256;69157;-60
2023/12/12 00:16:21;;;;;;;3.60;1.30;;;;;;;6.10;100.00;99271.59;105165;1262;69179;-60
2023/12/12 00:18:49;;;;;;;2.50;1.20;;;;;;;6.09;100.00;99274.39;105139;1260;73521;-60
2023/12/12 00:21:17;;;;;;;5.60;1.50;;;;;;;6.08;100.00;99279.43;105148;1262;81494;-60
2023/12/12 00:23:46;;;;;;;3.90;1.10;;;;;;;6.09;100.00;99282.89;105125;1256;71827;-60
2023/12/12 00:26:14;;;;;;;4.10;1.30;;;;;;;6.08;100.00;99281.36;105176;1260;69189;-60
2023/12/12 00:28:43;;;;;;;3.70;1.10;;;;;;;6.07;100.00;99286.95;105237;1262;69211;-60
2023/12/12 00:31:11;;;;;;;4.10;1.20;;;;;;;6.08;100.00;99291.61;105229;1257;73072;-60
2023/12/12 00:33:40;;;;;;;5.00;1.20;;;;;;;6.07;100.00;99291.11;105199;1262;83725;-59
2023/12/12 00:36:08;;;;;;;3.40;1.20;;;;;;;6.06;100.00;99294.79;105159;1256;73190;-60
2023/12/12 00:38:37;;;;;;;4.10;1.10;;;;;;;6.07;100.00;99301.17;105199;1257;69130;-60
2023/12/12 00:41:06;;;;;;;2.00;1.10;;;;;;;6.07;100.00;99301.36;105241;1261;69179;-60
2023/12/12 00:43:34;;;;;;;2.40;1.10;;;;;;;6.06;100.00;99304.70;105215;1261;73011;-59
2023/12/12 00:46:02;;;;;;;4.20;0.90;;;;;;;6.06;100.00;99310.58;105125;1262;81746;-59
2023/12/12 00:48:31;;;;;;;5.50;0.90;;;;;;;6.06;100.00;99319.96;105162;1262;72445;-60
2023/12/12 00:50:59;;;;;;;3.00;0.90;;;;;;;6.06;100.00;99319.95;105192;1260;69202;-60
2023/12/12 00:53:27;;;;;;;2.00;1.00;;;;;;;6.06;100.00;99317.00;105182;1260;69183;-60
2023/12/12 00:55:56;;;;;;;2.80;0.90;;;;;;;6.06;100.00;99324.27;105199;1256;72739;-60
2023/12/12 00:58:24;;;;;;;1.90;0.80;;;;;;;6.05;100.00;99327.29;105181;1262;82823;-60
2023/12/12 01:00:52;;;;;;;1.70;0.80;;;;;;;6.03;100.00;99330.23;105135;1256;72992;-60
2023/12/12 01:03:20;;;;;;;1.60;0.80;;;;;;;6.03;100.00;99332.19;105167;1260;69174;-59
2023/12/12 01:05:49;;;;;;;4.20;1.10;;;;;;;6.01;100.00;99339.18;105188;1260;69289;-60
2023/12/12 01:08:17;;;;;;;1.90;0.70;;;;;;;6.01;100.00;99339.86;105144;1256;73177;-59
2023/12/12 01:10:46;;;;;;;2.30;0.70;;;;;;;6.00;100.00;99339.58;105138;1262;81864;-60
2023/12/12 01:13:14;;;;;;;3.90;1.10;;;;;;;5.99;100.00;99341.48;105122;1257;73194;-60
2023/12/12 01:15:42;;;;;;;0.80;0.40;;;;;;;5.99;100.00;99348.10;105151;1258;69134;-60
2023/12/12 01:18:10;;;;;;;1.40;0.70;;;;;;;5.99;100.00;99352.80;105110;1263;69161;-60
2023/12/12 01:20:39;;;;;;;1.50;0.50;;;;;;;6.00;100.00;99358.81;105185;1257;73499;-59
2023/12/12 01:23:07;;;;;;;1.50;0.50;;;;;;;5.99;100.00;99357.29;105133;1261;82850;-60
2023/12/12 01:25:35;;;;;;;2.50;0.60;;;;;;;5.99;100.00;99362.30;105182;1263;71985;-60
2023/12/12 01:28:04;;;;;;;3.80;1.10;;;;;;;5.99;100.00;99369.25;105134;1262;69403;-59
2023/12/12 01:30:32;;;;;;;1.30;0.70;;;;;;;5.99;100.00;99361.47;105175;1262;69739;-60
2023/12/12 01:33:04;;;;;;;3.20;0.70;;;;;;;5.99;100.00;99363.55;105166;1258;74468;-59
2023/12/12 01:35:33;;;;;;;3.90;0.80;;;;;;;5.98;100.00;99362.52;105187;1260;81959;-59
2023/12/12 01:38:01;;;;;;;1.80;0.50;;;;;;;5.99;100.00;99369.10;105150;1260;72294;-60
2023/12/12 01:40:29;;;;;;;2.10;1.00;;;;;;;5.99;100.00;99372.89;105159;1260;69097;-60
2023/12/12 01:43:05;;;;;;;1.30;0.60;;;;;;;6.00;100.00;99371.10;105115;1262;69184;-60
2023/12/12 01:45:33;;;;;;;3.20;0.90;;;;;;;6.00;100.00;99370.41;105197;1262;72498;-60
2023/12/12 01:48:02;;;;;;;3.40;1.60;;;;;;;6.00;100.00;99372.70;105227;1261;81996;-60
2023/12/12 01:50:30;;;;;;;2.40;0.50;;;;;;;6.00;100.00;99377.70;105192;1262;70624;-60
2023/12/12 01:52:58;;;;;;;2.30;0.70;;;;;;;5.99;100.00;99368.73;105169;1263;69799;-60
2023/12/12 01:55:27;;;;;;;2.10;0.50;;;;;;;6.01;100.00;99369.38;105146;1261;69270;-59
2023/12/12 01:57:55;;;;;;;3.20;0.80;;;;;;;6.01;100.00;99368.15;105144;1262;73409;-60
2023/12/12 02:00:23;;;;;;;2.50;0.90;;;;;;;6.01;100.00;99377.86;105180;1262;81816;-59
2023/12/12 02:02:52;;;;;;;0.80;0.50;;;;;;;6.00;100.00;99368.51;105207;1262;71658;-60
2023/12/12 02:05:20;;;;;;;4.20;1.50;;;;;;;6.00;100.00;99368.86;105127;1261;69157;-59
2023/12/12 02:07:49;;;;;;;3.90;0.90;;;;;;;6.01;100.00;99373.53;105077;1266;69187;-60
2023/12/12 02:10:19;;;;;;;1.70;0.60;;;;;;;5.99;100.00;99385.72;105174;1256;73473;-59
2023/12/12 02:12:47;;;;;;;7.80;1.90;;;;;;;5.99;100.00;99387.27;105196;1260;81501;-60
2023/12/12 02:15:15;;;;;;;2.80;0.80;;;;;;;6.00;100.00;99386.94;105163;1258;73607;-59
2023/12/12 02:17:43;;;;;;;6.60;1.40;;;;;;;5.99;100.00;99383.83;105125;1260;69201;-59
2023/12/12 02:20:12;;;;;;;4.50;1.20;;;;;;;5.99;100.00;99391.64;105140;1257;69118;-60
2023/12/12 02:22:40;;;;;;;8.00;1.60;;;;;;;5.98;100.00;99387.32;105205;1257;72878;-60
2023/12/12 02:25:09;;;;;;;3.00;0.90;;;;;;;5.96;100.00;99395.36;105149;1262;81264;-60
2023/12/12 02:27:37;;;;;;;6.00;1.40;;;;;;;5.96;100.00;99400.93;105080;1263;71860;-59
2023/12/12 02:30:06;;;;;;;4.50;1.30;;;;;;;5.97;100.00;99407.29;105203;1262;69068;-60
2023/12/12 02:32:34;;;;;;;5.80;1.30;;;;;;;5.96;100.00;99409.77;105201;1257;69212;-60
2023/12/12 02:35:03;;;;;;;6.70;1.40;;;;;;;5.97;100.00;99413.05;105210;1260;72040;-60
2023/12/12 02:37:31;;;;;;;3.40;1.10;;;;;;;5.96;100.00;99419.11;105246;1258;81192;-59
2023/12/12 02:40:00;;;;;;;5.20;1.70;;;;;;;5.95;100.00;99424.00;105147;1263;71408;-59
2023/12/12 02:42:29;;;;;;;5.10;1.20;;;;;;;5.95;100.00;99430.42;105218;1258;69073;-60
2023/12/12 02:44:57;;;;;;;7.40;1.80;;;;;;;5.95;100.00;99432.52;105165;1261;69294;-59
2023/12/12 02:47:25;;;;;;;6.50;1.50;;;;;;;5.95;100.00;99437.88;105243;1262;73087;-59
2023/12/12 02:49:54;;;;;;;6.50;1.60;;;;;;;5.95;100.00;99443.95;105137;1260;81225;-59
2023/12/12 02:52:22;;;;;;;3.80;1.10;;;;;;;5.96;100.00;99450.36;105096;1257;72001;-59
2023/12/12 02:54:50;;;;;;;3.40;1.30;;;;;;;5.94;100.00;99457.51;105176;1263;69123;-59
2023/12/12 02:57:18;;;;;;;6.70;1.50;;;;;;;5.93;100.00;99460.65;105138;1262;69218;-59
2023/12/12 02:59:46;;;;;;;3.70;1.10;;;;;;;5.94;100.00;99461.17;105153;1260;72770;-59
2023/12/12 03:02:15;;;;;;;6.20;1.40;;;;;;;5.94;100.00;99474.17;105167;1263;81562;-59
2023/12/12 03:04:44;;;;;;;5.40;1.60;;;;;;;5.93;100.00;99475.05;105188;1257;70608;-60
2023/12/12 03:07:13;;;;;;;4.70;1.20;;;;;;;5.93;100.00;99483.37;105198;1262;69185;-61
2023/12/12 03:09:41;;;;;;;9.90;1.90;;;;;;;5.92;100.00;99487.89;105177;1260;69208;-62
2023/12/12 03:12:09;;;;;;;4.90;1.50;;;;;;;5.89;100.00;99492.66;105201;1267;73820;-62
2023/12/12 03:14:37;;;;;;;2.70;1.00;;;;;;;5.87;100.00;99496.73;105171;1262;81883;-61
2023/12/12 03:17:06;;;;;;;5.70;1.60;;;;;;;5.84;100.00;99501.33;105157;1262;71859;-61
2023/12/12 03:19:34;;;;;;;5.10;1.60;;;;;;;5.83;100.00;99503.98;105163;1264;69214;-61
2023/12/12 03:22:02;;;;;;;5.70;1.50;;;;;;;5.80;100.00;99508.21;105209;1260;69137;-60
2023/12/12 03:24:31;;;;;;;8.90;1.70;;;;;;;5.78;100.00;99507.08;105132;1260;71356;-61
2023/12/12 03:26:59;;;;;;;3.60;0.90;;;;;;;5.75;100.00;99511.49;105179;1260;81360;-60
2023/12/12 03:29:27;;;;;;;4.30;1.30;;;;;;;5.72;100.00;99511.06;105176;1258;72145;-61
2023/12/12 03:31:59;;;;;;;4.00;1.30;;;;;;;5.71;100.00;99508.33;105162;1262;69792;-60
2023/12/12 03:34:28;;;;;;;2.40;1.10;;;;;;;5.70;100.00;99515.63;105189;1262;69147;-60
2023/12/12 03:36:56;;;;;;;4.50;1.30;;;;;;;5.68;100.00;99519.52;105148;1260;73001;-61
2023/12/12 03:39:24;;;;;;;3.90;1.00;;;;;;;5.66;100.00;99523.91;105187;1257;80422;-61
2023/12/12 03:41:54;;;;;;;3.60;0.90;;;;;;;5.66;100.00;99525.81;105199;1258;71835;-61
2023/12/12 03:44:22;;;;;;;4.10;1.20;;;;;;;5.65;100.00;99532.95;105169;1263;69201;-62
2023/12/12 03:46:50;;;;;;;3.40;1.10;;;;;;;5.65;100.00;99536.09;105136;1258;69190;-61
2023/12/12 03:49:18;;;;;;;3.00;0.90;;;;;;;5.63;100.00;99538.04;105131;1261;72672;-62
2023/12/12 03:51:46;;;;;;;2.50;0.90;;;;;;;5.61;100.00;99541.20;105168;1261;81674;-62
2023/12/12 03:54:14;;;;;;;2.90;1.00;;;;;;;5.60;100.00;99540.39;105125;1263;70929;-62
2023/12/12 03:56:42;;;;;;;4.10;1.10;;;;;;;5.59;100.00;99547.33;105131;1261;69458;-63
2023/12/12 03:59:10;;;;;;;2.50;0.90;;;;;;;5.57;100.00;99547.92;105118;1258;69172;-63
2023/12/12 04:01:39;;;;;;;1.50;0.70;;;;;;;5.57;100.00;99550.88;105151;1260;74163;-62
2023/12/12 04:04:07;;;;;;;0.50;0.30;;;;;;;5.55;100.00;99553.02;105166;1260;81922;-63
2023/12/12 04:06:45;;;;;;;1.00;0.40;;;;;;;5.53;100.00;99558.62;105106;1261;71470;-63
2023/12/12 04:09:15;;;;;;;1.50;0.60;;;;;;;5.52;100.00;99561.57;105178;1258;69129;-63
2023/12/12 04:11:43;;;;;;;1.60;0.80;;;;;;;5.53;100.00;99562.42;105205;1257;69193;-63
2023/12/12 04:14:11;;;;;;;2.10;0.80;;;;;;;5.52;100.00;99561.05;105139;1261;72958;-62
2023/12/12 04:16:39;;;;;;;3.70;0.80;;;;;;;5.52;100.00;99566.45;105164;1260;80026;-63
2023/12/12 04:19:07;;;;;;;1.50;0.70;;;;;;;5.52;100.00;99573.20;105213;1261;71308;-62
2023/12/12 04:21:36;;;;;;;1.20;0.80;;;;;;;5.52;100.00;99573.20;105149;1258;69128;-62
2023/12/12 04:24:04;;;;;;;0.90;0.50;;;;;;;5.52;100.00;99572.52;105204;1260;69138;-62
2023/12/12 04:26:33;;;;;;;1.00;0.60;;;;;;;5.52;100.00;99579.61;105192;1260;73465;-62
2023/12/12 04:29:03;;;;;;;1.20;0.80;;;;;;;5.53;100.00;99578.02;105138;1261;81827;-62
2023/12/12 04:31:31;;;;;;;1.40;0.80;;;;;;;5.53;100.00;99585.80;105151;1261;71477;-62
2023/12/12 04:34:00;;;;;;;1.40;0.50;;;;;;;5.51;100.00;99584.83;105115;1257;69073;-62
2023/12/12 04:36:28;;;;;;;0.50;0.40;;;;;;;5.49;100.00;99589.91;105177;1257;69096;-62
2023/12/12 04:38:56;;;;;;;0.70;0.30;;;;;;;5.47;100.00;99598.65;105153;1258;73104;-62
2023/12/12 04:41:24;;;;;;;0.90;0.60;;;;;;;5.44;100.00;99603.77;105115;1260;80357;-62
2023/12/12 04:43:53;;;;;;;0.50;0.50;;;;;;;5.42;100.00;99607.10;105142;1258;71858;-62
2023/12/12 04:46:21;;;;;;;0.70;0.60;;;;;;;5.41;100.00;99609.21;105112;1258;69229;-62
2023/12/12 04:48:49;;;;;;;0.30;0.30;;;;;;;5.40;100.00;99610.45;105148;1261;69148;-62
2023/12/12 04:51:18;;;;;;;1.00;0.50;;;;;;;5.38;100.00;99616.08;105209;1260;73253;-62
2023/12/12 04:53:46;;;;;;;2.30;0.60;;;;;;;5.36;100.00;99618.88;105103;1262;81838;-62
2023/12/12 04:56:14;;;;;;;1.10;0.60;;;;;;;5.36;100.00;99625.30;105120;1257;71657;-62
2023/12/12 04:58:42;;;;;;;0.50;0.50;;;;;;;5.33;100.00;99628.99;105152;1261;69176;-63
2023/12/12 05:01:10;;;;;;;2.00;1.00;;;;;;;5.31;100.00;99630.13;105119;1260;69797;-62
2023/12/12 05:03:39;;;;;;;0.80;0.60;;;;;;;5.28;100.00;99633.30;105110;1261;73170;-62
2023/12/12 05:06:08;;;;;;;1.90;0.70;;;;;;;5.25;100.00;99638.23;105182;1260;82909;-62
2023/12/12 05:08:37;;;;;;;0.50;0.50;;;;;;;5.23;100.00;99638.14;105219;1260;72152;-62
2023/12/12 05:11:05;;;;;;;0.70;0.60;;;;;;;5.20;100.00;99641.66;105156;1258;69691;-61
2023/12/12 05:13:33;;;;;;;0.70;0.50;;;;;;;5.17;100.00;99641.95;105124;1261;69186;-61
2023/12/12 05:16:03;;;;;;;1.40;0.60;;;;;;;5.15;100.00;99642.33;105122;1261;73206;-62
2023/12/12 05:18:40;;;;;;;0.90;0.60;;;;;;;5.12;100.00;99645.17;105129;1260;81624;-62
2023/12/12 05:21:09;;;;;;;0.90;0.70;;;;;;;5.10;100.00;99646.27;105189;1268;71670;-62
2023/12/12 05:23:37;;;;;;;0.40;0.40;;;;;;;5.08;100.00;99643.36;105213;1261;69106;-61
2023/12/12 05:26:05;;;;;;;0.80;0.50;;;;;;;5.08;100.00;99646.15;105140;1261;69824;-62
2023/12/12 05:28:33;;;;;;;1.50;0.70;;;;;;;5.08;100.00;99644.42;105144;1260;72751;-61
2023/12/12 05:31:02;;;;;;;0.60;0.60;;;;;;;5.08;100.00;99647.53;105132;1261;81441;-62
2023/12/12 05:33:30;;;;;;;0.80;0.80;;;;;;;5.08;100.00;99648.06;105185;1261;72946;-62
2023/12/12 05:35:58;;;;;;;1.00;0.70;;;;;;;5.08;100.00;99651.70;105160;1261;69169;-62
2023/12/12 05:38:27;;;;;;;0.70;0.70;;;;;;;5.09;100.00;99655.30;105178;1260;69203;-62
2023/12/12 05:40:56;;;;;;;1.10;0.70;;;;;;;5.10;100.00;99664.27;105176;1257;73067;-61
2023/12/12 05:43:24;;;;;;;1.60;1.00;;;;;;;5.12;100.00;99667.70;105148;1261;81409;-61
2023/12/12 05:45:53;;;;;;;3.10;1.20;;;;;;;5.13;100.00;99670.80;105167;1260;71818;-61
2023/12/12 05:48:22;;;;;;;2.70;1.10;;;;;;;5.14;100.00;99667.30;105187;1257;69128;-62
2023/12/12 05:50:50;;;;;;;1.10;0.80;;;;;;;5.15;100.00;99673.67;105169;1261;69348;-61
2023/12/12 05:53:18;;;;;;;1.10;0.70;;;;;;;5.16;100.00;99673.67;105184;1258;72845;-62
2023/12/12 05:55:47;;;;;;;1.90;1.00;;;;;;;5.16;100.00;99671.92;105189;1261;81986;-61
2023/12/12 05:58:15;;;;;;;2.70;0.90;;;;;;;5.18;100.00;99676.20;105192;1262;71010;-61
2023/12/12 06:00:43;;;;;;;2.40;2.00;;;;;;;5.21;100.00;99682.35;105148;1260;69112;-61
2023/12/12 06:03:11;;;;;;;2.40;1.60;;;;;;;5.20;100.00;99686.87;105125;1260;69153;-61
2023/12/12 06:05:40;;;;;;;1.40;1.20;;;;;;;5.19;100.00;99695.58;105177;1258;74543;-61
2023/12/12 06:08:08;;;;;;;2.50;1.30;;;;;;;5.20;100.00;99697.80;105142;1260;80543;-61
2023/12/12 06:10:37;;;;;;;2.30;1.10;;;;;;;5.21;100.00;99692.93;105147;1258;70751;-61
2023/12/12 06:13:05;;;;;;;1.40;1.10;;;;;;;5.22;100.00;99698.27;105202;1257;69092;-61
2023/12/12 06:15:34;;;;;;;3.00;1.60;;;;;;;5.25;100.00;99699.58;105130;1258;69205;-61
2023/12/12 06:18:02;;;;;;;3.20;1.40;;;;;;;5.27;100.00;99706.27;105175;1261;73238;-61
2023/12/12 06:20:32;;;;;;;1.50;1.20;;;;;;;5.27;100.00;99708.51;105207;1262;82700;-61
2023/12/12 06:23:01;;;;;;;2.40;0.90;;;;;;;5.29;100.00;99712.63;105155;1261;70404;-61
2023/12/12 06:25:29;;;;;;;2.30;1.20;;;;;;;5.30;100.00;99712.09;105168;1260;69154;-61
2023/12/12 06:27:58;;;;;;;2.50;0.90;;;;;;;5.30;100.00;99713.13;105190;1263;69187;-61
2023/12/12 06:30:26;;;;;;;2.00;1.40;;;;;;;5.31;100.00;99715.70;105169;1257;74641;-61
2023/12/12 06:32:55;;;;;;;3.90;1.80;;;;;;;5.30;100.00;99713.47;105154;1261;81531;-61
2023/12/12 06:35:24;;;;;;;3.30;1.60;;;;;;;5.31;100.00;99714.30;105132;1265;71811;-61
2023/12/12 06:37:52;;;;;;;2.50;0.90;;;;;;;5.30;100.00;99717.81;105161;1258;69128;-61
2023/12/12 06:40:21;;;;;;;1.40;0.90;;;;;;;5.29;100.00;99721.10;105109;1257;69211;-61
2023/12/12 06:42:49;;;;;;;2.80;1.20;;;;;;;5.30;100.00;99720.38;105215;1260;73233;-61
2023/12/12 06:45:18;;;;;;;2.00;0.70;;;;;;;5.29;100.00;99720.41;105139;1260;83398;-61
2023/12/12 06:47:46;;;;;;;4.00;1.40;;;;;;;5.28;100.00;99724.09;105180;1261;72379;-61
2023/12/12 06:50:14;;;;;;;1.40;0.70;;;;;;;5.27;100.00;99726.55;105183;1261;69129;-61
2023/12/12 06:52:43;;;;;;;6.40;1.60;;;;;;;5.27;100.00;99727.92;105110;1257;69119;-61
2023/12/12 06:55:12;;;;;;;2.30;0.80;;;;;;;5.26;100.00;99729.15;105157;1257;74021;-60
2023/12/12 06:57:41;;;;;;;6.30;3.60;;;;;;;5.27;100.00;99731.91;105165;1257;81886;-61
2023/12/12 07:00:11;;;;;;;2.00;1.00;;;;;;;5.26;100.00;99734.54;105138;1258;72053;-60
2023/12/12 07:02:39;;;;;;;1.50;0.50;;;;;;;5.26;100.00;99738.67;105157;1257;69180;-61
2023/12/12 07:05:08;;;;;;;1.30;0.60;;;;;;;5.26;100.00;99743.02;105153;1260;69192;-61
2023/12/12 07:07:36;;;;;;;0.60;0.40;;;;;;;5.25;100.00;99746.49;105168;1257;72888;-61
2023/12/12 07:10:06;;;;;;;0.90;0.40;;;;;;;5.26;100.00;99748.90;105114;1260;81402;-61
2023/12/12 07:12:35;;;;;;;1.20;0.50;;;;;;;5.26;100.00;99745.94;105152;1257;72057;-60
2023/12/12 07:15:23;;;;;;;2.30;1.10;;;;;;;5.26;100.00;99747.69;105052;1261;69158;-61
2023/12/12 07:17:51;;;;;;;1.70;0.90;;;;;;;5.27;100.00;99751.83;105121;1260;69202;-60
2023/12/12 07:20:21;;;;;;;1.40;0.80;;;;;;;5.28;100.00;99753.38;105182;1257;72932;-60
2023/12/12 07:22:49;;;;;;;2.20;0.70;;;;;;;5.30;100.00;99758.69;105194;1261;82759;-60
2023/12/12 07:25:17;;;;;;;0.90;0.70;;;;;;;5.31;100.00;99762.64;105162;1261;72243;-60
2023/12/12 07:27:46;;;;;;;3.40;1.00;;;;;;;5.31;100.00;99764.20;105107;1260;69128;-61
2023/12/12 07:30:14;;;;;;;3.00;1.30;;;;;;;5.33;100.00;99769.69;105217;1257;69179;-60
2023/12/12 07:32:44;;;;;;;23.70;10.40;;;;;;;5.33;100.00;99768.29;105215;1257;74347;-61
2023/12/12 07:35:12;;;;;;;17.90;7.70;;;;;;;5.34;100.00;99767.40;105199;1261;81129;-61
2023/12/12 07:37:40;;;;;;;26.80;11.10;;;;;;;5.35;100.00;99772.06;105170;1260;71951;-61
2023/12/12 07:40:09;;;;;;;9.00;2.90;;;;;;;5.36;100.00;99772.90;105117;1261;69130;-60
2023/12/12 07:42:37;;;;;;;9.60;2.70;;;;;;;5.36;100.00;99770.98;105187;1257;69077;-61
2023/12/12 07:45:07;;;;;;;9.90;2.70;;;;;;;5.37;100.00;99775.46;105146;1257;73591;-61
2023/12/12 07:47:35;;;;;;;10.30;3.30;;;;;;;5.39;100.00;99777.67;105182;1256;81773;-61
2023/12/12 07:50:10;;;;;;;5.50;1.70;;;;;;;5.38;100.00;99780.30;105135;1260;72474;-61
2023/12/12 07:52:38;;;;;;;5.80;1.90;;;;;;;5.39;100.00;99780.96;105162;1257;69192;-61
2023/12/12 07:55:08;;;;;;;5.60;1.30;;;;;;;5.41;100.00;99780.92;105213;1261;69113;-61
2023/12/12 07:57:37;;;;;;;7.10;1.60;;;;;;;5.41;100.00;99785.59;105202;1258;72716;-61
2023/12/12 08:00:06;;;;;;;3.60;0.90;;;;;;;5.42;100.00;99787.31;105173;1257;82134;-61
2023/12/12 08:02:37;;;;;;;1.10;0.70;;;;;;;5.40;100.00;99792.04;105149;1261;73345;-61
2023/12/12 08:05:06;;;;;;;5.50;2.30;;;;;;;5.39;100.00;99792.40;105185;1258;69186;-61
2023/12/12 08:07:34;;;;;;;4.80;2.30;;;;;;;5.40;100.00;99789.61;105179;1257;69164;-62
2023/12/12 08:10:05;;;;;;;5.70;3.10;;;;;;;5.38;100.00;99791.05;105217;1257;73129;-61
2023/12/12 08:12:33;;;;;;;10.60;3.60;;;;;;;5.38;100.00;99789.14;105148;1258;82142;-62
2023/12/12 08:15:01;;;;;;;6.30;3.20;;;;;;;5.37;100.00;99792.61;105100;1261;72280;-62
2023/12/12 08:17:30;;;;;;;8.90;5.30;;;;;;;5.35;100.00;99791.64;105223;1256;69196;-62
2023/12/12 08:19:58;;;;;;;5.40;2.70;;;;;;;5.36;100.00;99789.36;105169;1260;69199;-61
2023/12/12 08:22:27;;;;;;;10.90;3.60;;;;;;;5.36;100.00;99792.46;105160;1257;73444;-61
2023/12/12 08:24:56;;;;;;;8.90;2.70;;;;;;;5.38;100.00;99795.89;105117;1260;81566;-62
2023/12/12 08:27:24;;;;;;;6.00;2.70;;;;;;;5.36;100.00;99799.92;105169;1257;71915;-61
2023/12/12 08:29:52;;;;;;;8.40;2.70;;;;;;;5.36;100.00;99796.46;105089;1257;69089;-61
2023/12/12 08:32:20;;;;;;;5.60;2.30;;;;;;;5.37;100.00;99801.98;105141;1258;69218;-61
2023/12/12 08:34:49;;;;;;;11.90;3.20;;;;;;;5.36;100.00;99801.83;105132;1257;73279;-61
2023/12/12 08:37:17;;;;;;;11.60;3.70;;;;;;;5.38;100.00;99808.02;105184;1256;81723;-60
2023/12/12 08:39:45;;;;;;;9.60;3.90;;;;;;;5.39;100.00;99804.02;105086;1257;72078;-60
2023/12/12 08:42:14;;;;;;;10.50;3.90;;;;;;;5.40;100.00;99802.58;105152;1258;69113;-61
2023/12/12 08:44:42;;;;;;;7.50;3.80;;;;;;;5.43;100.00;99805.32;105189;1260;69256;-61
2023/12/12 08:47:10;;;;;;;10.20;4.50;;;;;;;5.44;100.00;99800.78;105181;1258;73407;-60
2023/12/12 08:49:39;;;;;;;14.60;6.10;;;;;;;5.46;100.00;99804.52;105168;1257;80647;-61
2023/12/12 08:52:08;;;;;;;14.90;7.10;;;;;;;5.46;100.00;99802.96;105193;1257;71817;-61
2023/12/12 08:54:36;;;;;;;13.00;7.60;;;;;;;5.49;100.00;99802.02;105116;1261;69156;-60
2023/12/12 08:57:05;;;;;;;9.70;5.80;;;;;;;5.52;100.00;99798.80;105168;1260;69124;-60
2023/12/12 08:59:33;;;;;;;6.90;3.90;;;;;;;5.54;100.00;99795.83;105190;1256;73261;-60
2023/12/12 09:02:01;;;;;;;11.60;3.70;;;;;;;5.56;100.00;99797.68;105118;1261;81758;-60
2023/12/12 09:04:32;;;;;;;9.60;3.70;;;;;;;5.59;100.00;99802.82;105115;1261;71696;-60
2023/12/12 09:07:00;;;;;;;8.00;3.40;;;;;;;5.60;100.00;99802.61;105162;1261;69157;-60
2023/12/12 09:09:31;;;;;;;6.40;2.90;;;;;;;5.60;100.00;99802.08;105160;1260;69171;-60
2023/12/12 09:12:00;;;;;;;7.30;2.40;;;;;;;5.62;100.00;99806.20;105203;1258;72954;-60
2023/12/12 09:14:29;;;;;;;5.00;2.00;;;;;;;5.63;100.00;99799.60;105161;1260;81861;-60
2023/12/12 09:16:57;;;;;;;5.90;2.40;;;;;;;5.62;100.00;99799.27;105109;1260;71915;-60
2023/12/12 09:19:25;;;;;;;6.50;2.20;;;;;;;5.60;100.00;99794.28;105121;1257;69121;-60
2023/12/12 09:21:54;;;;;;;7.40;2.30;;;;;;;5.63;100.00;99794.04;105147;1260;69145;-60
2023/12/12 09:24:22;;;;;;;6.80;2.30;;;;;;;5.66;100.00;99793.45;105148;1256;72669;-60
2023/12/12 09:26:50;;;;;;;5.40;2.50;;;;;;;5.66;100.00;99790.32;105092;1256;80551;-60
2023/12/12 09:29:18;;;;;;;5.00;2.00;;;;;;;5.68;100.00;99790.45;105118;1257;71022;-60
2023/12/12 09:31:49;;;;;;;6.60;2.50;;;;;;;5.72;100.00;99794.48;105097;1257;69084;-60
2023/12/12 09:34:17;;;;;;;15.70;5.10;;;;;;;5.75;100.00;99795.80;105168;1260;69195;-60
2023/12/12 09:36:45;;;;;;;6.70;2.70;;;;;;;5.79;100.00;99794.44;105153;1256;73052;-60
2023/12/12 09:39:15;;;;;;;5.80;2.10;;;;;;;5.81;100.00;99793.72;105142;1260;81493;-60
2023/12/12 09:41:47;;;;;;;10.00;2.10;;;;;;;5.82;100.00;99789.36;105172;1256;70511;-60
2023/12/12 09:44:17;;;;;;;8.60;2.60;;;;;;;5.87;100.00;99789.91;105103;1258;69225;-60
2023/12/12 09:46:46;;;;;;;8.10;2.10;;;;;;;5.91;100.00;99782.19;105114;1261;69169;-60
2023/12/12 09:49:14;;;;;;;4.20;2.00;;;;;;;5.96;100.00;99783.98;105124;1258;72219;-60
2023/12/12 09:51:43;;;;;;;4.40;1.70;;;;;;;5.97;100.00;99783.44;105163;1258;81441;-60
2023/12/12 09:54:12;;;;;;;6.40;2.10;;;;;;;6.00;100.00;99785.59;105207;1257;70723;-60
2023/12/12 09:56:40;;;;;;;6.80;2.20;;;;;;;6.05;100.00;99781.84;105191;1257;69192;-60
2023/12/12 09:59:08;;;;;;;8.50;1.90;;;;;;;6.11;100.00;99786.34;105070;1256;69273;-60
2023/12/12 10:01:38;;;;;;;5.70;1.80;;;;;;;6.13;100.00;99788.02;105117;1257;73560;-60
2023/12/12 10:04:07;;;;;;;6.80;2.70;;;;;;;6.15;100.00;99783.27;105102;1261;82490;-59
2023/12/12 10:06:39;;;;;;;8.80;2.80;;;;;;;6.20;100.00;99785.89;105178;1260;71467;-60
2023/12/12 10:09:10;;;;;;;8.80;3.50;;;;;;;6.28;100.00;99790.54;105151;1260;69131;-60
2023/12/12 10:11:39;;;;;;;8.20;2.30;;;;;;;6.34;100.00;99794.00;105178;1260;69209;-59
2023/12/12 10:14:08;;;;;;;5.90;2.10;;;;;;;6.36;100.00;99791.69;105163;1256;71767;-60
2023/12/12 10:16:37;;;;;;;5.60;2.20;;;;;;;6.38;100.00;99789.71;105141;1256;81773;-60
2023/12/12 10:19:10;;;;;;;5.40;1.90;;;;;;;6.43;100.00;99785.56;105083;1257;71743;-59
2023/12/12 10:21:39;;;;;;;4.40;1.70;;;;;;;6.50;100.00;99785.20;105085;1257;69140;-60
2023/12/12 10:24:07;;;;;;;6.60;2.20;;;;;;;6.54;100.00;99788.55;105084;1261;69249;-59
2023/12/12 10:26:36;;;;;;;4.30;1.50;;;;;;;6.53;100.00;99792.39;105114;1256;73355;-60
2023/12/12 10:29:04;;;;;;;4.70;1.70;;;;;;;6.51;100.00;99791.40;105184;1256;82749;-60
2023/12/12 10:31:35;;;;;;;4.70;1.80;;;;;;;6.56;100.00;99791.77;105131;1257;71665;-60
2023/12/12 10:34:04;;;;;;;5.10;1.70;;;;;;;6.62;100.00;99790.03;105154;1260;69223;-59
2023/12/12 10:36:35;;;;;;;5.40;2.10;;;;;;;6.62;100.00;99790.02;105185;1260;69185;-60
2023/12/12 10:39:13;;;;;;;3.00;1.30;;;;;;;6.65;100.00;99789.77;105134;1257;72188;-59
2023/12/12 10:41:55;;;;;;;3.90;1.40;;;;;;;6.69;100.00;99792.41;105153;1260;81523;-60
2023/12/12 10:44:35;;;;;;;6.50;1.50;;;;;;;6.68;100.00;99791.91;105147;1257;72127;-60
2023/12/12 10:47:05;;;;;;;2.80;1.40;;;;;;;6.68;100.00;99797.30;105145;1261;69627;-59
2023/12/12 10:49:35;;;;;;;4.00;1.60;;;;;;;6.71;100.00;99797.05;105158;1260;69158;-60
2023/12/12 10:52:05;;;;;;;2.80;1.10;;;;;;;6.74;100.00;99796.27;105124;1257;73042;-60
2023/12/12 10:54:41;;;;;;;2.50;1.20;;;;;;;6.71;100.00;99801.20;104942;1256;195928;-60
2023/12/12 10:57:09;;;;;;;3.00;1.20;;;;;;;6.71;100.00;99801.40;105192;1257;71205;-59
2023/12/12 10:59:39;;;;;;;4.00;1.40;;;;;;;6.67;100.00;99799.92;105137;1261;69145;-60
2023/12/12 11:02:27;;;;;;;6.10;2.80;;;;;;;6.67;100.00;99797.68;105058;1260;69217;-60
2023/12/12 11:04:56;;;;;;;7.80;2.80;;;;;;;6.65;100.00;99799.32;105166;1262;73628;-60
2023/12/12 11:07:24;;;;;;;3.10;1.70;;;;;;;6.62;100.00;99802.20;105064;1262;82780;-59
2023/12/12 11:09:52;;;;;;;4.60;1.70;;;;;;;6.59;100.00;99801.73;105097;1256;73140;-60
2023/12/12 11:12:21;;;;;;;7.40;2.00;;;;;;;6.62;100.00;99798.38;105130;1260;69112;-60
2023/12/12 11:14:49;;;;;;;6.00;1.50;;;;;;;6.64;100.00;99799.88;105137;1262;69211;-59
2023/12/12 11:17:18;;;;;;;2.90;1.20;;;;;;;6.61;100.00;99799.80;105229;1257;73656;-59
2023/12/12 11:19:47;;;;;;;4.60;1.40;;;;;;;6.60;100.00;99798.42;105132;1257;81051;-60
2023/12/12 11:22:38;;;;;;;5.80;2.20;;;;;;;6.58;100.00;99795.38;105079;1256;73538;-60
2023/12/12 11:25:08;;;;;;;4.90;1.80;;;;;;;6.60;100.00;99797.75;105118;1256;69199;-60
2023/12/12 11:27:44;;;;;;;3.70;1.60;;;;;;;6.58;100.00;99795.53;105187;1257;69286;-60
2023/12/12 11:30:14;;;;;;;4.00;1.70;;;;;;;6.58;100.00;99800.75;105190;1260;72930;-60
2023/12/12 11:32:43;;;;;;;5.10;1.60;;;;;;;6.62;100.00;99800.11;105169;1260;81285;-59